createdAt,value
2018-07-08T00:02:25.529Z,17.30
2018-07-08T00:04:53.264Z,17.20
2018-07-08T00:07:20.865Z,17.20
2018-07-08T00:09:48.571Z,17.20
2018-07-08T00:12:16.201Z,17.20
2018-07-08T00:14:43.809Z,17.20
2018-07-08T00:17:11.549Z,17.30
2018-07-08T00:19:39.188Z,17.30
2018-07-08T00:22:06.830Z,17.30
2018-07-08T00:24:34.428Z,17.20
2018-07-08T00:27:02.029Z,17.20
2018-07-08T00:29:29.592Z,17.10
2018-07-08T00:31:57.175Z,17.10
2018-07-08T00:34:24.762Z,17.10
2018-07-08T00:36:52.312Z,17.10
2018-07-08T00:39:19.874Z,17.10
2018-07-08T00:41:47.467Z,17.00
2018-07-08T00:44:14.983Z,17.00
2018-07-08T00:46:42.522Z,17.00
2018-07-08T00:49:10.240Z,16.90
2018-07-08T00:51:37.975Z,16.90
2018-07-08T00:54:05.617Z,16.90
2018-07-08T00:56:33.162Z,16.80
2018-07-08T00:59:00.747Z,16.80
2018-07-08T01:01:28.330Z,16.70
2018-07-08T01:03:55.954Z,16.70
2018-07-08T01:06:23.558Z,16.70
2018-07-08T01:08:51.137Z,16.80
2018-07-08T01:11:18.687Z,16.80
2018-07-08T01:13:46.277Z,16.90
2018-07-08T01:16:13.928Z,16.80
2018-07-08T01:18:41.511Z,16.80
2018-07-08T01:21:09.077Z,16.70
2018-07-08T01:23:36.625Z,16.70
2018-07-08T01:26:09.455Z,16.70
2018-07-08T01:28:37.405Z,16.70
2018-07-08T01:31:05.279Z,16.70
2018-07-08T01:33:32.839Z,16.70
2018-07-08T01:36:00.515Z,16.80
2018-07-08T01:38:28.094Z,16.70
2018-07-08T01:40:55.845Z,16.70
2018-07-08T01:43:23.449Z,16.60
2018-07-08T01:45:51.011Z,16.60
2018-07-08T01:48:18.553Z,16.70
2018-07-08T01:50:46.098Z,16.70
2018-07-08T01:53:13.733Z,16.70
2018-07-08T01:55:41.333Z,16.70
2018-07-08T01:58:08.878Z,16.60
2018-07-08T02:00:36.463Z,16.60
2018-07-08T02:03:04.199Z,16.60
2018-07-08T02:05:31.802Z,16.60
2018-07-08T02:07:59.590Z,16.60
2018-07-08T02:10:27.194Z,16.60
2018-07-08T02:12:54.868Z,16.50
2018-07-08T02:15:22.886Z,16.50
2018-07-08T02:17:50.439Z,16.50
2018-07-08T02:20:18.061Z,16.50
2018-07-08T02:22:45.819Z,16.50
2018-07-08T02:25:13.596Z,16.50
2018-07-08T02:27:41.184Z,16.50
2018-07-08T02:30:08.847Z,16.50
2018-07-08T02:32:36.504Z,16.50
2018-07-08T02:35:04.125Z,16.40
2018-07-08T02:37:31.771Z,16.40
2018-07-08T02:39:59.479Z,16.40
2018-07-08T02:42:27.066Z,16.40
2018-07-08T02:44:54.673Z,16.40
2018-07-08T02:47:22.740Z,16.40
2018-07-08T02:49:50.493Z,16.40
2018-07-08T02:52:18.656Z,16.40
2018-07-08T02:54:46.184Z,16.30
2018-07-08T02:57:13.916Z,16.40
2018-07-08T02:59:41.461Z,16.40
2018-07-08T03:02:08.997Z,16.40
2018-07-08T03:04:36.651Z,16.40
2018-07-08T03:07:04.269Z,16.40
2018-07-08T03:09:31.806Z,16.40
2018-07-08T03:11:59.342Z,16.40
2018-07-08T03:14:26.868Z,16.40
2018-07-08T03:16:54.391Z,16.40
2018-07-08T03:19:22.307Z,16.50
2018-07-08T03:21:49.917Z,16.50
2018-07-08T03:24:17.456Z,16.50
2018-07-08T03:26:45.082Z,16.40
2018-07-08T03:29:12.712Z,16.40
2018-07-08T03:31:40.336Z,16.40
2018-07-08T03:34:07.881Z,16.40
2018-07-08T03:36:35.395Z,16.40
2018-07-08T03:39:04.224Z,16.40
2018-07-08T03:41:31.795Z,16.40
2018-07-08T03:43:59.359Z,16.40
2018-07-08T03:46:26.911Z,16.40
2018-07-08T03:48:54.437Z,16.30
2018-07-08T03:51:21.941Z,16.30
2018-07-08T03:53:49.461Z,16.40
2018-07-08T03:56:17.013Z,16.40
2018-07-08T03:58:44.570Z,16.40
2018-07-08T04:01:12.123Z,16.40
2018-07-08T04:03:39.711Z,16.40
2018-07-08T04:06:07.321Z,16.40
2018-07-08T04:08:34.923Z,16.40
2018-07-08T04:11:02.544Z,16.50
2018-07-08T04:13:30.099Z,16.50
2018-07-08T04:15:57.644Z,16.60
2018-07-08T04:18:25.195Z,16.60
2018-07-08T04:20:52.748Z,16.70
2018-07-08T04:23:20.326Z,16.60
2018-07-08T04:25:47.919Z,16.70
2018-07-08T04:28:15.464Z,16.80
2018-07-08T04:30:42.997Z,16.90
2018-07-08T04:33:10.529Z,17.00
2018-07-08T04:35:38.106Z,17.00
2018-07-08T04:38:05.672Z,17.10
2018-07-08T04:40:33.214Z,17.30
2018-07-08T04:43:00.784Z,17.50
2018-07-08T04:45:28.342Z,17.60
2018-07-08T04:47:55.863Z,17.60
2018-07-08T04:50:23.478Z,17.70
2018-07-08T04:52:51.080Z,17.70
2018-07-08T04:55:18.598Z,17.60
2018-07-08T04:57:46.208Z,17.70
2018-07-08T05:00:13.762Z,17.90
2018-07-08T05:02:41.324Z,18.10
2018-07-08T05:05:08.902Z,18.20
2018-07-08T05:07:36.474Z,18.20
2018-07-08T05:10:04.053Z,18.10
2018-07-08T05:12:31.606Z,18.10
2018-07-08T05:14:59.186Z,18.30
2018-07-08T05:17:26.725Z,18.40
2018-07-08T05:19:54.266Z,18.50
2018-07-08T05:22:21.854Z,18.60
2018-07-08T05:24:49.395Z,18.80
2018-07-08T05:27:16.996Z,18.80
2018-07-08T05:29:44.591Z,18.90
2018-07-08T05:32:12.124Z,19.10
2018-07-08T05:34:39.764Z,19.20
2018-07-08T05:37:08.139Z,19.20
2018-07-08T05:39:35.922Z,19.20
2018-07-08T05:42:03.488Z,19.20
2018-07-08T05:44:31.046Z,19.30
2018-07-08T05:46:58.613Z,19.40
2018-07-08T05:49:26.162Z,19.40
2018-07-08T05:51:53.731Z,19.40
2018-07-08T05:54:21.277Z,19.50
2018-07-08T05:56:48.869Z,19.50
2018-07-08T05:59:16.402Z,19.60
2018-07-08T06:01:43.980Z,19.60
2018-07-08T06:04:11.575Z,19.70
2018-07-08T06:06:39.167Z,19.70
2018-07-08T06:09:07.002Z,19.70
2018-07-08T06:11:34.708Z,19.80
2018-07-08T06:14:02.343Z,19.90
2018-07-08T06:16:29.928Z,20.00
2018-07-08T06:18:57.442Z,20.10
2018-07-08T06:21:25.062Z,20.10
2018-07-08T06:23:52.651Z,20.10
2018-07-08T06:26:20.196Z,20.30
2018-07-08T06:28:47.777Z,20.50
2018-07-08T06:31:15.387Z,20.60
2018-07-08T06:33:42.969Z,20.60
2018-07-08T06:36:10.525Z,20.70
2018-07-08T06:38:38.077Z,20.70
2018-07-08T06:41:05.669Z,20.70
2018-07-08T06:43:33.310Z,20.80
2018-07-08T06:46:00.872Z,20.80
2018-07-08T06:48:28.506Z,20.90
2018-07-08T06:50:56.242Z,20.90
2018-07-08T06:55:51.359Z,21.00
2018-07-08T06:58:19.071Z,21.00
2018-07-08T07:00:46.627Z,20.90
2018-07-08T07:03:14.204Z,21.00
2018-07-08T07:05:41.826Z,20.90
2018-07-08T07:08:09.364Z,20.90
2018-07-08T07:10:36.962Z,21.00
2018-07-08T07:13:04.822Z,21.00
2018-07-08T07:15:32.408Z,21.10
2018-07-08T07:18:00.001Z,21.10
2018-07-08T07:20:27.559Z,21.10
2018-07-08T07:22:55.411Z,21.20
2018-07-08T07:25:23.262Z,21.20
2018-07-08T07:27:50.845Z,21.20
2018-07-08T07:30:18.440Z,21.30
2018-07-08T07:32:46.053Z,21.30
2018-07-08T07:35:13.584Z,21.30
2018-07-08T07:37:41.154Z,21.30
2018-07-08T07:40:08.710Z,21.30
2018-07-08T07:42:36.292Z,21.50
2018-07-08T07:45:04.125Z,21.60
2018-07-08T07:47:31.691Z,21.70
2018-07-08T07:49:59.235Z,21.70
2018-07-08T07:52:26.814Z,21.60
2018-07-08T07:54:54.397Z,21.60
2018-07-08T07:57:21.951Z,21.60
2018-07-08T07:59:49.519Z,21.60
2018-07-08T08:02:17.102Z,21.70
2018-07-08T08:04:44.752Z,21.90
2018-07-08T08:07:12.380Z,22.10
2018-07-08T08:09:39.990Z,22.30
2018-07-08T08:12:07.555Z,22.40
2018-07-08T08:14:35.147Z,22.50
2018-07-08T08:17:02.834Z,22.60
2018-07-08T08:19:30.452Z,22.70
2018-07-08T08:21:57.999Z,22.80
2018-07-08T08:24:26.996Z,22.80
2018-07-08T08:26:54.657Z,22.80
2018-07-08T08:29:22.196Z,22.90
2018-07-08T08:31:49.807Z,23.00
2018-07-08T08:34:50.753Z,23.00
2018-07-08T08:37:19.552Z,23.00
2018-07-08T08:39:47.482Z,23.00
2018-07-08T08:42:15.332Z,23.00
2018-07-08T08:44:42.895Z,23.00
2018-07-08T08:47:10.475Z,23.10
2018-07-08T08:49:38.522Z,23.10
2018-07-08T08:52:07.301Z,23.00
2018-07-08T08:54:34.857Z,23.00
2018-07-08T08:57:02.446Z,23.10
2018-07-08T08:59:30.016Z,23.10
2018-07-08T09:01:57.631Z,23.10
2018-07-08T09:04:25.291Z,23.20
2018-07-08T09:06:52.916Z,23.40
2018-07-08T09:09:20.571Z,23.50
2018-07-08T09:11:48.103Z,23.50
2018-07-08T09:14:15.705Z,23.60
2018-07-08T09:16:43.286Z,23.70
2018-07-08T09:19:10.822Z,23.60
2018-07-08T09:21:38.380Z,23.50
2018-07-08T09:24:05.952Z,23.40
2018-07-08T09:26:33.528Z,23.30
2018-07-08T09:29:01.145Z,23.40
2018-07-08T09:31:28.716Z,23.50
2018-07-08T09:33:56.316Z,23.70
2018-07-08T09:36:23.846Z,23.70
2018-07-08T09:38:51.496Z,23.80
2018-07-08T09:41:19.004Z,24.20
2018-07-08T09:43:46.612Z,24.30
2018-07-08T09:46:14.170Z,24.40
2018-07-08T09:48:41.710Z,24.30
2018-07-08T09:51:09.328Z,24.40
2018-07-08T09:53:36.890Z,24.50
2018-07-08T09:56:04.561Z,24.70
2018-07-08T09:58:32.170Z,25.00
2018-07-08T10:01:01.701Z,25.00
2018-07-08T10:03:31.006Z,25.00
2018-07-08T10:05:58.577Z,24.90
2018-07-08T10:08:26.280Z,25.00
2018-07-08T10:10:54.043Z,25.20
2018-07-08T10:13:21.773Z,25.50
2018-07-08T10:15:49.804Z,25.60
2018-07-08T10:18:17.946Z,25.80
2018-07-08T10:20:45.861Z,25.80
2018-07-08T10:23:13.441Z,26.10
2018-07-08T10:25:41.029Z,26.10
2018-07-08T10:28:12.127Z,25.90
2018-07-08T10:30:39.814Z,25.80
2018-07-08T10:33:07.450Z,25.90
2018-07-08T10:35:46.351Z,25.90
2018-07-08T10:38:13.973Z,25.80
2018-07-08T10:40:41.513Z,25.80
2018-07-08T10:43:09.073Z,25.80
2018-07-08T10:45:36.643Z,25.90
2018-07-08T10:48:04.302Z,26.30
2018-07-08T10:50:31.882Z,26.80
2018-07-08T10:52:59.554Z,27.00
2018-07-08T10:55:27.220Z,26.80
2018-07-08T10:57:54.805Z,26.50
2018-07-08T11:00:22.379Z,26.20
2018-07-08T11:02:52.425Z,26.10
2018-07-08T11:05:19.991Z,25.90
2018-07-08T11:07:47.569Z,25.80
2018-07-08T11:10:15.203Z,25.70
2018-07-08T11:12:42.927Z,26.00
2018-07-08T11:15:10.592Z,26.40
2018-07-08T11:17:38.225Z,27.00
2018-07-08T11:20:06.039Z,27.60
2018-07-08T11:22:33.614Z,27.80
2018-07-08T11:25:01.189Z,27.60
2018-07-08T11:27:28.769Z,27.60
2018-07-08T11:29:56.430Z,27.80
2018-07-08T11:32:24.007Z,28.10
2018-07-08T11:34:51.658Z,28.10
2018-07-08T11:37:19.244Z,27.90
2018-07-08T11:39:46.993Z,27.70
2018-07-08T11:42:14.575Z,27.50
2018-07-08T11:44:42.137Z,27.70
2018-07-08T11:47:09.840Z,27.90
2018-07-08T11:49:37.415Z,28.20
2018-07-08T11:52:05.019Z,28.90
2018-07-08T11:54:32.637Z,29.50
2018-07-08T11:57:00.250Z,29.50
2018-07-08T11:59:27.855Z,29.20
2018-07-08T12:01:55.543Z,29.40
2018-07-08T12:04:23.115Z,29.50
2018-07-08T12:06:50.870Z,29.70
2018-07-08T12:09:18.453Z,29.90
2018-07-08T12:11:46.060Z,29.80
2018-07-08T12:14:13.646Z,29.40
2018-07-08T12:16:41.273Z,28.90
2018-07-08T12:19:08.933Z,28.20
2018-07-08T12:21:37.289Z,28.00
2018-07-08T12:24:04.936Z,28.10
2018-07-08T12:26:32.533Z,28.60
2018-07-08T12:29:00.155Z,28.60
2018-07-08T12:31:27.791Z,28.40
2018-07-08T12:33:55.386Z,28.60
2018-07-08T12:36:22.971Z,28.90
2018-07-08T12:38:50.530Z,28.80
2018-07-08T12:41:18.126Z,28.50
2018-07-08T12:43:45.696Z,28.40
2018-07-08T12:46:13.282Z,28.20
2018-07-08T12:48:40.878Z,28.00
2018-07-08T12:51:08.482Z,28.30
2018-07-08T12:53:36.071Z,28.60
2018-07-08T12:56:03.896Z,28.30
2018-07-08T12:58:31.536Z,28.00
2018-07-08T13:00:59.214Z,27.70
2018-07-08T13:03:26.795Z,27.90
2018-07-08T13:05:54.369Z,28.10
2018-07-08T13:08:21.989Z,28.30
2018-07-08T13:10:49.622Z,28.70
2018-07-08T13:13:17.199Z,29.30
2018-07-08T13:15:44.812Z,29.70
2018-07-08T13:18:12.398Z,30.10
2018-07-08T13:20:39.986Z,30.60
2018-07-08T13:23:07.610Z,30.90
2018-07-08T13:25:35.273Z,30.50
2018-07-08T13:28:02.926Z,29.80
2018-07-08T13:30:30.569Z,29.00
2018-07-08T13:32:58.194Z,28.40
2018-07-08T13:35:25.781Z,27.80
2018-07-08T13:37:53.340Z,27.30
2018-07-08T13:40:20.962Z,27.30
2018-07-08T13:42:48.531Z,27.40
2018-07-08T13:45:16.129Z,27.60
2018-07-08T13:47:43.725Z,27.50
2018-07-08T13:50:11.308Z,27.60
2018-07-08T13:52:38.900Z,27.90
2018-07-08T13:55:06.527Z,28.20
2018-07-08T13:57:34.202Z,28.60
2018-07-08T14:00:02.173Z,28.70
2018-07-08T14:02:29.779Z,28.60
2018-07-08T14:04:57.559Z,28.90
2018-07-08T14:07:25.177Z,29.60
2018-07-08T14:09:52.853Z,30.20
2018-07-08T14:12:20.449Z,30.90
2018-07-08T14:14:48.178Z,31.20
2018-07-08T14:17:15.761Z,31.30
2018-07-08T14:19:43.449Z,31.00
2018-07-08T14:22:11.016Z,30.80
2018-07-08T14:24:38.611Z,30.40
2018-07-08T14:27:06.332Z,30.10
2018-07-08T14:29:34.357Z,30.20
2018-07-08T14:32:02.009Z,30.50
2018-07-08T14:34:29.648Z,30.90
2018-07-08T14:36:57.230Z,31.20
2018-07-08T14:39:24.835Z,31.30
2018-07-08T14:41:52.461Z,30.80
2018-07-08T14:44:20.040Z,30.60
2018-07-08T14:46:47.583Z,30.70
2018-07-08T14:49:15.178Z,30.90
2018-07-08T14:51:42.785Z,31.20
2018-07-08T14:54:10.413Z,31.20
2018-07-08T14:56:37.957Z,31.10
2018-07-08T14:59:05.540Z,30.50
2018-07-08T15:01:33.182Z,30.10
2018-07-08T15:04:00.853Z,30.20
2018-07-08T15:06:28.418Z,30.70
2018-07-08T15:08:56.294Z,31.10
2018-07-08T15:11:23.924Z,31.40
2018-07-08T15:13:51.653Z,31.60
2018-07-08T15:16:19.319Z,31.90
2018-07-08T15:18:46.887Z,32.20
2018-07-08T15:21:14.506Z,32.20
2018-07-08T15:23:42.054Z,32.40
2018-07-08T15:26:09.646Z,32.50
2018-07-08T15:28:37.258Z,32.70
2018-07-08T15:31:04.942Z,32.40
2018-07-08T15:33:32.500Z,32.20
2018-07-08T15:36:00.116Z,32.00
2018-07-08T15:38:27.734Z,31.90
2018-07-08T15:40:55.339Z,31.90
2018-07-08T15:43:23.108Z,32.10
2018-07-08T15:45:50.780Z,32.20
2018-07-08T15:48:18.403Z,32.30
2018-07-08T15:50:45.999Z,32.40
2018-07-08T15:53:13.599Z,32.30
2018-07-08T15:55:41.219Z,32.40
2018-07-08T15:58:08.838Z,32.50
2018-07-08T16:00:36.387Z,32.40
2018-07-08T16:03:04.016Z,32.10
2018-07-08T16:05:31.618Z,31.80
2018-07-08T16:07:59.498Z,31.50
2018-07-08T16:10:27.057Z,31.30
2018-07-08T16:12:54.724Z,31.20
2018-07-08T16:15:22.330Z,31.30
2018-07-08T16:17:49.955Z,31.30
2018-07-08T16:20:17.661Z,31.40
2018-07-08T16:22:45.267Z,31.50
2018-07-08T16:25:12.885Z,31.40
2018-07-08T16:27:40.521Z,31.30
2018-07-08T16:30:08.226Z,31.20
2018-07-08T16:32:36.005Z,31.00
2018-07-08T16:35:03.691Z,30.80
2018-07-08T16:37:31.435Z,30.80
2018-07-08T16:39:59.021Z,30.80
2018-07-08T16:42:26.642Z,30.80
2018-07-08T16:44:54.318Z,30.70
2018-07-08T16:47:21.967Z,30.70
2018-07-08T16:49:49.565Z,30.70
2018-07-08T16:52:17.281Z,30.60
2018-07-08T16:54:44.882Z,30.40
2018-07-08T16:57:12.515Z,30.20
2018-07-08T16:59:40.121Z,30.20
2018-07-08T17:02:08.060Z,30.10
2018-07-08T17:04:36.043Z,30.10
2018-07-08T17:07:03.761Z,30.20
2018-07-08T17:09:31.385Z,29.90
2018-07-08T17:11:59.064Z,29.70
2018-07-08T17:14:26.692Z,29.60
2018-07-08T17:16:54.311Z,29.50
2018-07-08T17:19:22.002Z,29.50
2018-07-08T17:21:49.748Z,29.40
2018-07-08T17:24:17.467Z,29.30
2018-07-08T17:26:46.253Z,29.30
2018-07-08T17:29:14.149Z,29.20
2018-07-08T17:31:41.743Z,29.20
2018-07-08T17:34:09.416Z,29.10
2018-07-08T17:36:38.095Z,28.90
2018-07-08T17:39:06.634Z,28.70
2018-07-08T17:41:34.525Z,28.50
2018-07-08T17:44:02.228Z,28.30
2018-07-08T17:46:30.100Z,28.20
2018-07-08T17:48:59.684Z,28.10
2018-07-08T17:51:27.281Z,27.90
2018-07-08T17:53:55.026Z,27.70
2018-07-08T17:56:23.801Z,27.70
2018-07-08T18:01:25.796Z,27.30
2018-07-08T18:03:53.399Z,27.10
2018-07-08T18:06:21.174Z,26.80
2018-07-08T18:08:48.885Z,26.70
2018-07-08T18:11:16.726Z,26.50
2018-07-08T18:13:44.482Z,26.40
2018-07-08T18:16:12.151Z,26.20
2018-07-08T18:18:42.366Z,26.00
2018-07-08T18:21:10.073Z,25.90
2018-07-08T18:23:37.715Z,25.80
2018-07-08T18:26:05.574Z,25.70
2018-07-08T18:28:33.280Z,25.50
2018-07-08T18:31:00.980Z,25.40
2018-07-08T18:33:28.729Z,25.20
2018-07-08T18:35:56.388Z,25.10
2018-07-08T18:38:24.064Z,24.90
2018-07-08T18:40:51.701Z,24.70
2018-07-08T18:43:20.051Z,24.50
2018-07-08T18:45:47.719Z,24.20
2018-07-08T18:48:16.814Z,24.00
2018-07-08T18:50:44.493Z,23.80
2018-07-08T18:53:12.241Z,23.60
2018-07-08T18:55:40.060Z,23.40
2018-07-08T18:58:09.043Z,23.30
2018-07-08T19:00:36.959Z,23.10
2018-07-08T19:03:05.115Z,22.90
2018-07-08T19:05:32.874Z,22.80
2018-07-08T19:08:00.670Z,22.60
2018-07-08T19:10:28.555Z,22.50
2018-07-08T19:12:56.315Z,22.30
2018-07-08T19:15:24.672Z,22.20
2018-07-08T19:17:52.408Z,22.10
2018-07-08T19:20:20.120Z,22.00
2018-07-08T19:22:47.826Z,21.80
2018-07-08T19:25:15.494Z,21.70
2018-07-08T19:27:43.151Z,21.50
2018-07-08T19:30:11.002Z,21.40
2018-07-08T19:32:39.636Z,21.30
2018-07-08T19:35:07.349Z,21.30
2018-07-08T19:37:35.023Z,21.20
2018-07-08T19:40:03.070Z,21.10
2018-07-08T19:42:30.912Z,21.00
2018-07-08T19:44:58.640Z,20.90
2018-07-08T19:47:26.409Z,20.80
2018-07-08T19:49:54.159Z,20.70
2018-07-08T19:54:51.102Z,20.60
2018-07-08T19:57:19.174Z,20.60
2018-07-08T19:59:47.016Z,20.50
2018-07-08T20:02:14.737Z,20.40
2018-07-08T20:04:42.756Z,20.40
2018-07-08T20:07:10.468Z,20.30
2018-07-08T20:09:38.131Z,20.30
2018-07-08T20:12:06.822Z,20.20
2018-07-08T20:14:34.822Z,20.20
2018-07-08T20:17:02.717Z,20.20
2018-07-08T20:19:30.545Z,20.10
2018-07-08T20:21:58.200Z,20.10
2018-07-08T20:24:25.950Z,20.10
2018-07-08T20:26:53.675Z,20.10
2018-07-08T20:29:21.480Z,20.10
2018-07-08T20:31:49.136Z,20.00
2018-07-08T20:34:16.848Z,20.00
2018-07-08T20:36:44.563Z,20.00
2018-07-08T20:39:12.137Z,19.90
2018-07-08T20:41:39.807Z,19.80
2018-07-08T20:44:07.418Z,19.80
2018-07-08T20:46:35.173Z,19.80
2018-07-08T20:49:02.924Z,19.70
2018-07-08T20:51:31.139Z,19.70
2018-07-08T20:53:58.872Z,19.70
2018-07-08T20:56:26.520Z,19.60
2018-07-08T20:58:54.919Z,19.60
2018-07-08T21:01:22.561Z,19.50
2018-07-08T21:06:17.645Z,19.40
2018-07-08T21:08:45.294Z,19.30
2018-07-08T21:11:13.162Z,19.20
2018-07-08T21:13:41.243Z,19.20
2018-07-08T21:18:36.526Z,19.10
2018-07-08T21:21:04.744Z,19.00
2018-07-08T21:23:32.415Z,18.90
2018-07-08T21:26:00.276Z,18.70
2018-07-08T21:28:29.225Z,18.70
2018-07-08T21:30:56.830Z,18.50
2018-07-08T21:33:24.517Z,18.50
2018-07-08T21:35:52.161Z,18.40
2018-07-08T21:38:19.813Z,18.30
2018-07-08T21:40:47.474Z,18.30
2018-07-08T21:43:15.036Z,18.30
2018-07-08T21:45:42.592Z,18.30
2018-07-08T21:48:10.153Z,18.40
2018-07-08T21:50:37.705Z,18.40
2018-07-08T21:53:05.470Z,18.50
2018-07-08T21:55:33.062Z,18.50
2018-07-08T21:58:00.633Z,18.50
2018-07-08T22:00:31.196Z,18.50
2018-07-08T22:02:59.164Z,18.50
2018-07-08T22:05:27.552Z,18.40
2018-07-08T22:08:01.202Z,18.30
2018-07-08T22:10:30.086Z,18.30
2018-07-08T22:12:58.432Z,18.20
2018-07-08T22:15:26.108Z,18.20
2018-07-08T22:17:54.472Z,18.20
2018-07-08T22:20:23.321Z,18.10
2018-07-08T22:22:50.866Z,18.10
2018-07-08T22:25:18.410Z,18.00
2018-07-08T22:27:46.057Z,18.10
2018-07-08T22:30:13.990Z,18.00
2018-07-08T22:32:41.705Z,18.00
2018-07-08T22:35:09.691Z,17.90
2018-07-08T22:37:37.337Z,17.90
2018-07-08T22:40:05.169Z,17.80
2018-07-08T22:42:32.755Z,17.80
2018-07-08T22:45:00.411Z,17.70
2018-07-08T22:47:28.177Z,17.70
2018-07-08T22:49:55.789Z,17.70
2018-07-08T22:52:23.334Z,17.60
2018-07-08T22:54:51.071Z,17.60
2018-07-08T22:57:19.407Z,17.60
2018-07-08T22:59:58.223Z,17.50
2018-07-08T23:02:38.711Z,17.50
2018-07-08T23:05:06.427Z,17.50
2018-07-08T23:07:33.958Z,17.50
2018-07-08T23:10:01.569Z,17.50
2018-07-08T23:12:29.111Z,17.40
2018-07-08T23:14:57.106Z,17.40
2018-07-08T23:17:24.668Z,17.30
2018-07-08T23:19:52.402Z,17.30
2018-07-08T23:22:53.412Z,17.20
2018-07-08T23:25:20.980Z,17.20
2018-07-08T23:27:48.602Z,17.20
2018-07-08T23:30:16.135Z,17.10
2018-07-08T23:32:43.824Z,17.10
2018-07-08T23:35:11.373Z,17.10
2018-07-08T23:37:38.939Z,17.10
2018-07-08T23:40:06.506Z,17.00
2018-07-08T23:42:34.088Z,17.00
2018-07-08T23:45:02.014Z,17.00
2018-07-08T23:47:29.642Z,17.00
2018-07-08T23:49:57.603Z,16.90
2018-07-08T23:52:25.987Z,16.90
2018-07-08T23:54:53.573Z,16.80
2018-07-08T23:57:21.207Z,16.80
2018-07-08T23:59:48.768Z,16.80
